Time;durP1;ratioP1;P1;durP2;ratioP2;P2;SDS_P1;SDS_P2;PMS_P1;PMS_P2;Temp;Humidity;BMP_temperature;BMP_pressure;BME280_temperature;BME280_humidity;BME280_pressure;Samples;Min_cycle;Max_cycle;Signal;HPM_P1;HPM_P2
2023/04/24 00:00:33;;;;;;;;;;;11.40;99.90;;;;;;5072868;28;19928;-64
2023/04/24 00:02:58;;;;;;;;;;;11.40;99.90;;;;;;5070873;28;19925;-64
2023/04/24 00:05:24;;;;;;;;;;;11.30;99.90;;;;;;5072261;28;19932;-65
2023/04/24 00:07:53;;;;;;;;;;;11.30;99.90;;;;;;5054255;28;20027;-67
2023/04/24 00:10:18;;;;;;;;;;;11.30;99.90;;;;;;5070854;28;19944;-65
2023/04/24 00:12:44;;;;;;;;;;;11.30;99.90;;;;;;5071430;28;19924;-65
2023/04/24 00:15:10;;;;;;;;;;;11.20;99.90;;;;;;5070638;28;20158;-65
2023/04/24 00:17:36;;;;;;;;;;;11.30;99.90;;;;;;5054446;28;19928;-64
2023/04/24 00:20:04;;;;;;;;;;;11.20;99.90;;;;;;5071917;28;20027;-64
2023/04/24 00:22:30;;;;;;;;;;;11.20;99.90;;;;;;5071361;28;19947;-65
2023/04/24 00:24:56;;;;;;;;;;;11.20;99.90;;;;;;5071821;28;19931;-65
2023/04/24 00:27:22;;;;;;;;;;;11.10;99.90;;;;;;5072246;28;19925;-65
2023/04/24 00:29:48;;;;;;;;;;;11.10;99.90;;;;;;5070980;28;19925;-64
2023/04/24 00:32:13;;;;;;;;;;;11.10;99.90;;;;;;5070397;28;19928;-64
2023/04/24 00:34:39;;;;;;;;;;;11.20;99.90;;;;;;5072037;28;19983;-65
2023/04/24 00:37:05;;;;;;;;;;;11.10;99.90;;;;;;5071525;28;20014;-65
2023/04/24 00:39:30;;;;;;;;;;;11.10;99.90;;;;;;5071987;28;19924;-63
2023/04/24 00:41:56;;;;;;;;;;;11.20;99.90;;;;;;5071600;28;19931;-65
2023/04/24 00:44:22;;;;;;;;;;;11.20;99.90;;;;;;5072133;28;19924;-64
2023/04/24 00:46:51;;;;;;;;;;;11.20;99.90;;;;;;5071866;28;19925;-65
2023/04/24 00:49:23;;;;;;;;;;;11.20;99.90;;;;;;5104227;28;19932;-65
2023/04/24 00:51:50;;;;;;;;;;;11.10;99.90;;;;;;5071961;28;19955;-65
2023/04/24 00:54:17;;;;;;;;;;;11.00;99.90;;;;;;5070681;28;19932;-65
2023/04/24 00:56:43;;;;;;;;;;;11.00;99.90;;;;;;5070961;28;19924;-65
2023/04/24 00:59:09;;;;;;;;;;;11.10;99.90;;;;;;5071499;28;19924;-67
2023/04/24 01:01:35;;;;;;;;;;;11.00;99.90;;;;;;5072000;28;20070;-65
2023/04/24 01:04:01;;;;;;;;;;;10.90;99.90;;;;;;5071462;28;19924;-64
2023/04/24 01:06:27;;;;;;;;;;;10.90;99.90;;;;;;5071804;28;19932;-64
2023/04/24 01:08:53;;;;;;;;;;;10.90;99.90;;;;;;5071770;28;20372;-65
2023/04/24 01:11:19;;;;;;;;;;;10.90;99.90;;;;;;5071341;28;20329;-64
2023/04/24 01:13:46;;;;;;;;;;;10.80;99.90;;;;;;5070425;28;19932;-64
2023/04/24 01:16:13;;;;;;;;;;;10.90;99.90;;;;;;5070304;28;19964;-63
2023/04/24 01:18:38;;;;;;;;;;;10.90;99.90;;;;;;5055863;28;19949;-64
2023/04/24 01:21:05;;;;;;;;;;;10.90;99.90;;;;;;5075022;28;19924;-63
2023/04/24 01:23:30;;;;;;;;;;;10.80;99.90;;;;;;5075202;28;20012;-64
2023/04/24 01:25:56;;;;;;;;;;;10.90;99.90;;;;;;5075160;28;20039;-64
2023/04/24 01:28:22;;;;;;;;;;;10.80;99.90;;;;;;5074850;28;20045;-64
2023/04/24 01:30:47;;;;;;;;;;;10.80;99.90;;;;;;5073698;28;19924;-63
2023/04/24 01:33:13;;;;;;;;;;;10.70;99.90;;;;;;5074858;28;19928;-63
2023/04/24 01:35:39;;;;;;;;;;;10.80;99.90;;;;;;5073908;28;19924;-65
2023/04/24 01:38:05;;;;;;;;;;;10.70;99.90;;;;;;5074496;28;20470;-64
2023/04/24 01:40:31;;;;;;;;;;;10.80;99.90;;;;;;5075176;28;19925;-63
2023/04/24 01:42:57;;;;;;;;;;;10.70;99.90;;;;;;5074782;28;20399;-64
2023/04/24 01:45:23;;;;;;;;;;;10.70;99.90;;;;;;5073711;28;20688;-63
2023/04/24 01:47:49;;;;;;;;;;;10.70;99.90;;;;;;5074954;28;19978;-65
2023/04/24 01:50:15;;;;;;;;;;;10.70;99.90;;;;;;5074578;28;19924;-63
2023/04/24 01:52:40;;;;;;;;;;;10.60;99.90;;;;;;5074753;28;19978;-65
2023/04/24 01:55:06;;;;;;;;;;;10.60;99.90;;;;;;5074417;28;19971;-65
2023/04/24 01:57:32;;;;;;;;;;;10.60;99.90;;;;;;5074708;28;20332;-63
2023/04/24 01:59:58;;;;;;;;;;;10.60;99.90;;;;;;5073779;28;19931;-64
2023/04/24 02:02:24;;;;;;;;;;;10.50;99.90;;;;;;5074307;28;20186;-64
2023/04/24 02:04:50;;;;;;;;;;;10.50;99.90;;;;;;5056609;28;19931;-65
2023/04/24 02:07:15;;;;;;;;;;;10.50;99.90;;;;;;5073284;28;19924;-65
2023/04/24 02:09:41;;;;;;;;;;;10.50;99.90;;;;;;5073785;28;19924;-67
2023/04/24 02:12:07;;;;;;;;;;;10.50;99.90;;;;;;5073096;28;19931;-68
2023/04/24 02:14:32;;;;;;;;;;;10.50;99.90;;;;;;5074380;28;19932;-64
2023/04/24 02:16:58;;;;;;;;;;;10.50;99.90;;;;;;5073148;28;19934;-65
2023/04/24 02:19:24;;;;;;;;;;;10.50;99.90;;;;;;5073990;28;19924;-64
2023/04/24 02:21:49;;;;;;;;;;;10.50;99.90;;;;;;5074437;28;20331;-64
2023/04/24 02:24:15;;;;;;;;;;;10.50;99.90;;;;;;5073889;28;20267;-64
2023/04/24 02:26:41;;;;;;;;;;;10.50;99.90;;;;;;5074197;28;20002;-64
2023/04/24 02:29:06;;;;;;;;;;;10.50;99.90;;;;;;5073807;28;19979;-64
2023/04/24 02:31:32;;;;;;;;;;;10.40;99.90;;;;;;5072418;28;20441;-64
2023/04/24 02:33:58;;;;;;;;;;;10.50;99.90;;;;;;5074174;28;19950;-64
2023/04/24 02:36:23;;;;;;;;;;;10.50;99.90;;;;;;5072654;28;20355;-64
2023/04/24 02:38:49;;;;;;;;;;;10.40;99.90;;;;;;5074123;28;19943;-64
2023/04/24 02:41:14;;;;;;;;;;;10.40;99.90;;;;;;5073497;28;19936;-63
2023/04/24 02:43:40;;;;;;;;;;;10.40;99.90;;;;;;5073919;28;19929;-65
2023/04/24 02:46:05;;;;;;;;;;;10.50;99.90;;;;;;5072670;28;19924;-64
2023/04/24 02:48:31;;;;;;;;;;;10.50;99.90;;;;;;5072357;28;19921;-65
2023/04/24 02:50:57;;;;;;;;;;;10.50;99.90;;;;;;5073574;28;19924;-65
2023/04/24 02:53:23;;;;;;;;;;;10.50;99.90;;;;;;5072309;28;19924;-64
2023/04/24 02:55:48;;;;;;;;;;;10.50;99.90;;;;;;5073580;28;20062;-64
2023/04/24 02:58:14;;;;;;;;;;;10.50;99.90;;;;;;5073058;28;19925;-66
2023/04/24 03:00:39;;;;;;;;;;;10.50;99.90;;;;;;5072362;28;19924;-64
2023/04/24 03:03:05;;;;;;;;;;;10.50;99.90;;;;;;5073432;28;19932;-66
2023/04/24 03:05:31;;;;;;;;;;;10.50;99.90;;;;;;5072931;28;19924;-65
2023/04/24 03:07:56;;;;;;;;;;;10.50;99.90;;;;;;5072138;28;19938;-64
2023/04/24 03:10:22;;;;;;;;;;;10.50;99.90;;;;;;5071575;28;19924;-65
2023/04/24 03:12:48;;;;;;;;;;;10.50;99.90;;;;;;5055490;28;19971;-64
2023/04/24 03:15:13;;;;;;;;;;;10.50;99.90;;;;;;5055288;28;20291;-68
2023/04/24 03:17:39;;;;;;;;;;;10.50;99.90;;;;;;5071571;28;19924;-64
2023/04/24 03:20:05;;;;;;;;;;;10.50;99.90;;;;;;5072230;28;19924;-65
2023/04/24 03:22:32;;;;;;;;;;;10.50;99.90;;;;;;5105688;28;19925;-65
2023/04/24 03:24:58;;;;;;;;;;;10.50;99.90;;;;;;5073057;28;19924;-64
2023/04/24 03:27:23;;;;;;;;;;;10.50;99.90;;;;;;5071155;28;19929;-65
2023/04/24 03:29:53;;;;;;;;;;;10.50;99.90;;;;;;5071533;28;19934;-65
2023/04/24 03:32:19;;;;;;;;;;;10.50;99.90;;;;;;5072431;28;20348;-67
2023/04/24 03:34:45;;;;;;;;;;;10.50;99.90;;;;;;5071373;28;19924;-65
2023/04/24 03:37:10;;;;;;;;;;;10.50;99.90;;;;;;5071462;28;19925;-64
2023/04/24 03:39:36;;;;;;;;;;;10.50;99.90;;;;;;5054606;28;19928;-65
2023/04/24 03:42:02;;;;;;;;;;;10.50;99.90;;;;;;5072080;28;20381;-65
2023/04/24 03:44:27;;;;;;;;;;;10.50;99.90;;;;;;5072299;28;19931;-65
2023/04/24 03:46:53;;;;;;;;;;;10.60;99.90;;;;;;5072600;28;19929;-65
2023/04/24 03:49:18;;;;;;;;;;;10.50;99.90;;;;;;5072550;28;19928;-68
2023/04/24 03:51:44;;;;;;;;;;;10.50;99.90;;;;;;5054704;28;20015;-65
2023/04/24 03:54:10;;;;;;;;;;;10.50;99.90;;;;;;5072736;28;19931;-65
2023/04/24 03:56:35;;;;;;;;;;;10.60;99.90;;;;;;5072120;28;20289;-64
2023/04/24 03:59:02;;;;;;;;;;;10.50;99.90;;;;;;5071518;28;19932;-65
2023/04/24 04:01:28;;;;;;;;;;;10.50;99.90;;;;;;5072067;28;19970;-65
2023/04/24 04:03:53;;;;;;;;;;;10.50;99.90;;;;;;5070985;28;19933;-65
2023/04/24 04:06:21;;;;;;;;;;;10.50;99.90;;;;;;5072364;28;19924;-64
2023/04/24 04:08:46;;;;;;;;;;;10.40;99.90;;;;;;5071938;28;19924;-65
2023/04/24 04:11:12;;;;;;;;;;;10.50;99.90;;;;;;5054747;28;20034;-64
2023/04/24 04:13:38;;;;;;;;;;;10.40;99.90;;;;;;5070834;28;20496;-65
2023/04/24 04:16:03;;;;;;;;;;;10.50;99.90;;;;;;5072025;28;19928;-63
2023/04/24 04:18:29;;;;;;;;;;;10.50;99.90;;;;;;5071772;28;19936;-65
2023/04/24 04:20:54;;;;;;;;;;;10.40;99.90;;;;;;5071792;28;19930;-65
2023/04/24 04:23:20;;;;;;;;;;;10.40;99.90;;;;;;5071759;28;19935;-64
2023/04/24 04:25:46;;;;;;;;;;;10.40;99.90;;;;;;5070669;28;19931;-65
2023/04/24 04:28:12;;;;;;;;;;;10.50;99.90;;;;;;5070900;28;19924;-65
2023/04/24 04:30:38;;;;;;;;;;;10.50;99.90;;;;;;5053754;28;20289;-64
2023/04/24 04:33:03;;;;;;;;;;;10.40;99.90;;;;;;5072000;28;19935;-64
2023/04/24 04:35:29;;;;;;;;;;;10.50;99.90;;;;;;5070677;28;19924;-64
2023/04/24 04:37:58;;;;;;;;;;;10.40;99.90;;;;;;5070901;28;20024;-64
2023/04/24 04:40:24;;;;;;;;;;;10.40;99.90;;;;;;5072159;28;19937;-66
2023/04/24 04:42:52;;;;;;;;;;;10.50;99.90;;;;;;5070382;28;19925;-66
2023/04/24 04:45:18;;;;;;;;;;;10.40;99.90;;;;;;5071570;28;19925;-65
2023/04/24 04:47:44;;;;;;;;;;;10.40;99.90;;;;;;5070192;28;19924;-66
2023/04/24 04:50:10;;;;;;;;;;;10.40;99.90;;;;;;5071698;28;19931;-65
2023/04/24 04:52:36;;;;;;;;;;;10.40;99.90;;;;;;5073210;28;19924;-65
2023/04/24 04:55:01;;;;;;;;;;;10.40;99.90;;;;;;5074865;28;20281;-65
2023/04/24 04:57:27;;;;;;;;;;;10.40;99.90;;;;;;5075757;28;20331;-64
2023/04/24 04:59:53;;;;;;;;;;;10.40;99.90;;;;;;5075414;28;19929;-65
2023/04/24 05:02:18;;;;;;;;;;;10.40;99.90;;;;;;5075692;28;19931;-65
2023/04/24 05:04:44;;;;;;;;;;;10.40;99.90;;;;;;5075204;28;20342;-66
2023/04/24 05:07:10;;;;;;;;;;;10.40;99.90;;;;;;5075357;28;19925;-67
2023/04/24 05:09:37;;;;;;;;;;;10.40;99.90;;;;;;5075238;28;19924;-64
2023/04/24 05:12:02;;;;;;;;;;;10.40;99.90;;;;;;5075563;28;20011;-65
2023/04/24 05:14:28;;;;;;;;;;;10.50;99.90;;;;;;5074558;28;19991;-65
2023/04/24 05:16:54;;;;;;;;;;;10.40;99.90;;;;;;5074136;28;20332;-66
2023/04/24 05:19:19;;;;;;;;;;;10.40;99.90;;;;;;5073951;28;20024;-65
2023/04/24 05:21:45;;;;;;;;;;;10.40;99.90;;;;;;5075036;28;19924;-65
2023/04/24 05:24:10;;;;;;;;;;;10.40;99.90;;;;;;5074427;28;20374;-65
2023/04/24 05:26:36;;;;;;;;;;;10.50;99.90;;;;;;5075068;28;20382;-66
2023/04/24 05:29:02;;;;;;;;;;;10.50;99.90;;;;;;5075248;28;19928;-65
2023/04/24 05:31:28;;;;;;;;;;;10.50;99.90;;;;;;5074842;28;19928;-65
2023/04/24 05:33:53;;;;;;;;;;;10.50;99.90;;;;;;5074936;28;20264;-65
2023/04/24 05:36:19;;;;;;;;;;;10.50;99.90;;;;;;5073866;28;20035;-64
2023/04/24 05:38:45;;;;;;;;;;;10.50;99.90;;;;;;5073524;28;19982;-66
2023/04/24 05:41:10;;;;;;;;;;;10.40;99.90;;;;;;5073982;28;19931;-66
2023/04/24 05:43:36;;;;;;;;;;;10.40;99.90;;;;;;5074794;28;20062;-68
2023/04/24 05:46:01;;;;;;;;;;;10.40;99.90;;;;;;5074929;28;19924;-66
2023/04/24 05:48:27;;;;;;;;;;;10.40;99.90;;;;;;5073671;28;19931;-66
2023/04/24 05:50:53;;;;;;;;;;;10.50;99.90;;;;;;5074545;28;19936;-66
2023/04/24 05:53:18;;;;;;;;;;;10.50;99.90;;;;;;5073970;28;20006;-65
2023/04/24 05:55:44;;;;;;;;;;;10.40;99.90;;;;;;5074370;28;20024;-66
2023/04/24 05:58:11;;;;;;;;;;;10.50;99.90;;;;;;5074553;28;20011;-66
2023/04/24 06:00:37;;;;;;;;;;;10.40;99.90;;;;;;5074360;28;19971;-66
2023/04/24 06:03:03;;;;;;;;;;;10.40;99.90;;;;;;5073191;28;19939;-66
2023/04/24 06:05:29;;;;;;;;;;;10.40;99.90;;;;;;5056251;28;19925;-65
2023/04/24 06:07:55;;;;;;;;;;;10.40;99.90;;;;;;5106767;28;19925;-66
2023/04/24 06:10:21;;;;;;;;;;;10.30;99.90;;;;;;5072969;28;19970;-65
2023/04/24 06:12:47;;;;;;;;;;;10.40;99.90;;;;;;5072727;28;20015;-66
2023/04/24 06:15:12;;;;;;;;;;;10.30;99.90;;;;;;5074221;28;20396;-65
2023/04/24 06:17:38;;;;;;;;;;;10.30;99.90;;;;;;5074169;28;19925;-65
2023/04/24 06:20:05;;;;;;;;;;;10.30;99.90;;;;;;5072770;28;19925;-65
2023/04/24 06:22:31;;;;;;;;;;;10.30;99.90;;;;;;5072992;28;19924;-65
2023/04/24 06:24:56;;;;;;;;;;;10.30;99.90;;;;;;5073887;28;19925;-67
2023/04/24 06:27:22;;;;;;;;;;;10.20;99.90;;;;;;5072933;28;19931;-66
2023/04/24 06:29:54;;;;;;;;;;;10.20;99.90;;;;;;5073744;28;19970;-65
2023/04/24 06:32:23;;;;;;;;;;;10.20;99.90;;;;;;5072836;28;19931;-66
2023/04/24 06:34:50;;;;;;;;;;;10.20;99.90;;;;;;5072778;28;19931;-65
2023/04/24 06:37:16;;;;;;;;;;;10.20;99.90;;;;;;5074041;28;19924;-65
2023/04/24 06:39:41;;;;;;;;;;;10.20;99.90;;;;;;5073003;28;19931;-66
2023/04/24 06:42:09;;;;;;;;;;;10.20;99.90;;;;;;5073690;28;19930;-65
2023/04/24 06:44:40;;;;;;;;;;;10.20;99.90;;;;;;5072985;28;19931;-66
2023/04/24 06:47:07;;;;;;;;;;;10.30;99.90;;;;;;5072500;28;19931;-65
2023/04/24 06:49:32;;;;;;;;;;;10.20;99.90;;;;;;5072549;28;19925;-67
2023/04/24 06:51:58;;;;;;;;;;;10.20;99.90;;;;;;5073481;28;20020;-64
2023/04/24 06:54:23;;;;;;;;;;;10.20;99.90;;;;;;5073774;28;20389;-65
2023/04/24 06:56:51;;;;;;;;;;;10.20;99.90;;;;;;5073275;28;19933;-69
2023/04/24 06:59:16;;;;;;;;;;;10.20;99.90;;;;;;5073645;28;19924;-64
2023/04/24 07:01:42;;;;;;;;;;;10.20;99.90;;;;;;5055979;28;20305;-65
2023/04/24 07:04:07;;;;;;;;;;;10.20;99.90;;;;;;5073067;28;19924;-64
2023/04/24 07:06:33;;;;;;;;;;;10.20;99.90;;;;;;5072428;28;20019;-64
2023/04/24 07:09:00;;;;;;;;;;;10.30;99.90;;;;;;5072837;28;19968;-65
2023/04/24 07:11:29;;;;;;;;;;;10.30;99.90;;;;;;5073407;28;19924;-66
2023/04/24 07:13:55;;;;;;;;;;;10.30;99.90;;;;;;5072847;28;19928;-64
2023/04/24 07:16:20;;;;;;;;;;;10.20;99.90;;;;;;5072179;28;19932;-65
2023/04/24 07:18:46;;;;;;;;;;;10.20;99.90;;;;;;5073170;28;19925;-65
2023/04/24 07:21:11;;;;;;;;;;;10.20;99.90;;;;;;5055063;28;20190;-65
2023/04/24 07:23:37;;;;;;;;;;;10.10;99.90;;;;;;5071978;28;19974;-66
2023/04/24 07:26:03;;;;;;;;;;;10.10;99.90;;;;;;5071405;28;20103;-65
2023/04/24 07:28:31;;;;;;;;;;;10.20;99.90;;;;;;5073099;28;19983;-66
2023/04/24 07:30:58;;;;;;;;;;;10.10;99.90;;;;;;5070963;28;19925;-65
2023/04/24 07:33:24;;;;;;;;;;;10.10;99.90;;;;;;5071752;28;19967;-65
2023/04/24 07:35:50;;;;;;;;;;;10.00;99.90;;;;;;5071622;28;19987;-66
2023/04/24 07:38:15;;;;;;;;;;;10.00;99.90;;;;;;5072450;28;20316;-64
2023/04/24 07:40:41;;;;;;;;;;;10.00;99.90;;;;;;5071415;28;20011;-65
2023/04/24 07:43:06;;;;;;;;;;;10.00;99.90;;;;;;5072300;28;19971;-66
2023/04/24 07:45:35;;;;;;;;;;;10.00;99.90;;;;;;5071482;28;19924;-66
2023/04/24 07:48:01;;;;;;;;;;;10.00;99.90;;;;;;5072205;28;19939;-64
2023/04/24 07:50:27;;;;;;;;;;;10.00;99.90;;;;;;5072536;28;19932;-64
2023/04/24 07:52:52;;;;;;;;;;;10.00;99.90;;;;;;5105510;28;20166;-65
2023/04/24 07:55:18;;;;;;;;;;;10.00;99.90;;;;;;5054214;28;19925;-65
2023/04/24 07:57:43;;;;;;;;;;;10.00;99.90;;;;;;5072579;28;19931;-66
2023/04/24 08:00:10;;;;;;;;;;;10.00;99.90;;;;;;5072163;28;20428;-66
2023/04/24 08:02:36;;;;;;;;;;;10.00;99.90;;;;;;5071672;28;20270;-64
2023/04/24 08:05:03;;;;;;;;;;;9.90;99.90;;;;;;5072003;28;19932;-65
2023/04/24 08:07:29;;;;;;;;;;;10.00;99.90;;;;;;5072457;28;19925;-65
2023/04/24 08:09:55;;;;;;;;;;;10.00;99.90;;;;;;5071077;28;20404;-65
2023/04/24 08:12:20;;;;;;;;;;;9.90;99.90;;;;;;5071029;28;19932;-65
2023/04/24 08:14:46;;;;;;;;;;;9.90;99.90;;;;;;5070044;28;19932;-65
2023/04/24 08:17:11;;;;;;;;;;;9.80;99.90;;;;;;5069314;28;20344;-65
2023/04/24 08:19:37;;;;;;;;;;;9.90;99.90;;;;;;5071302;28;19928;-65
2023/04/24 08:22:03;;;;;;;;;;;9.80;99.90;;;;;;5069050;28;19975;-65
2023/04/24 08:24:29;;;;;;;;;;;9.90;99.90;;;;;;5070307;28;20373;-65
2023/04/24 08:26:56;;;;;;;;;;;9.90;99.90;;;;;;5070985;28;19978;-65
2023/04/24 08:29:22;;;;;;;;;;;9.90;99.90;;;;;;5070308;28;19990;-66
2023/04/24 08:31:47;;;;;;;;;;;9.90;99.90;;;;;;5069819;28;19924;-65
2023/04/24 08:34:13;;;;;;;;;;;9.80;99.90;;;;;;5070971;28;19928;-64
2023/04/24 08:36:40;;;;;;;;;;;9.80;99.90;;;;;;5070695;28;19924;-64
2023/04/24 08:39:06;;;;;;;;;;;9.70;99.90;;;;;;5066810;28;19926;-63
2023/04/24 08:41:33;;;;;;;;;;;9.80;99.90;;;;;;5069748;28;20305;-69
2023/04/24 08:43:59;;;;;;;;;;;9.80;99.90;;;;;;5071368;28;19931;-68
2023/04/24 08:46:25;;;;;;;;;;;9.80;99.90;;;;;;5071374;28;19925;-66
2023/04/24 08:48:52;;;;;;;;;;;9.70;99.90;;;;;;5071797;28;19925;-65
2023/04/24 08:51:18;;;;;;;;;;;9.60;99.90;;;;;;5070953;28;20440;-64
2023/04/24 08:53:43;;;;;;;;;;;9.60;99.90;;;;;;5071495;28;20067;-65
2023/04/24 08:56:09;;;;;;;;;;;9.60;99.90;;;;;;5071030;28;19932;-65
2023/04/24 08:58:35;;;;;;;;;;;9.50;99.90;;;;;;5070598;28;20259;-66
2023/04/24 09:01:01;;;;;;;;;;;9.50;99.90;;;;;;5068179;28;19924;-65
2023/04/24 09:03:27;;;;;;;;;;;9.50;99.90;;;;;;5069674;28;20021;-66
2023/04/24 09:05:54;;;;;;;;;;;9.40;99.90;;;;;;5069742;28;20320;-68
2023/04/24 09:08:21;;;;;;;;;;;9.40;99.90;;;;;;5067244;28;20011;-65
2023/04/24 09:10:46;;;;;;;;;;;9.30;99.90;;;;;;5067089;28;20239;-64
2023/04/24 09:13:12;;;;;;;;;;;9.30;99.90;;;;;;5102053;28;20019;-63
2023/04/24 09:15:38;;;;;;;;;;;9.30;99.90;;;;;;5068937;28;19988;-64
2023/04/24 09:18:04;;;;;;;;;;;9.30;99.90;;;;;;5066974;28;19993;-67
2023/04/24 09:20:30;;;;;;;;;;;9.30;99.90;;;;;;5070536;28;19931;-66
2023/04/24 09:22:57;;;;;;;;;;;9.30;99.90;;;;;;5069238;28;19928;-65
2023/04/24 09:25:23;;;;;;;;;;;9.30;99.90;;;;;;5069511;28;19968;-67
2023/04/24 09:27:48;;;;;;;;;;;9.40;99.90;;;;;;5069606;28;20442;-65
2023/04/24 09:30:20;;;;;;;;;;;9.40;99.90;;;;;;5071292;28;20023;-65
2023/04/24 09:32:46;;;;;;;;;;;9.40;99.90;;;;;;5071573;28;19931;-64
2023/04/24 09:35:12;;;;;;;;;;;9.40;99.90;;;;;;5070024;28;20354;-65
2023/04/24 09:37:38;;;;;;;;;;;9.40;99.90;;;;;;5071101;28;20335;-65
2023/04/24 09:40:22;;;;;;;;;;;9.40;99.90;;;;;;5055790;28;19964;-64
2023/04/24 09:42:52;;;;;;;;;;;9.50;99.90;;;;;;5075230;28;19978;-67
2023/04/24 09:45:18;;;;;;;;;;;9.50;99.90;;;;;;5072291;28;19925;-67
2023/04/24 09:47:44;;;;;;;;;;;9.50;99.90;;;;;;5073207;28;19924;-65
2023/04/24 09:50:11;;;;;;;;;;;9.50;99.90;;;;;;5056174;28;19924;-69
2023/04/24 09:52:40;;;;;;;;;;;9.50;99.90;;;;;;5073908;28;19931;-66
2023/04/24 09:55:10;;;;;;;;;;;9.40;99.90;;;;;;5074390;28;20393;-66
2023/04/24 09:57:36;;;;;;;;;;;9.40;99.90;;;;;;5056644;28;19928;-65
2023/04/24 10:00:02;;;;;;;;;;;9.40;99.90;;;;;;5073069;28;20362;-64
2023/04/24 10:02:31;;;;;;;;;;;9.40;99.90;;;;;;5075111;28;20015;-65
2023/04/24 10:04:58;;;;;;;;;;;9.50;99.90;;;;;;5073529;28;20259;-66
2023/04/24 10:07:27;;;;;;;;;;;9.50;99.90;;;;;;5056254;28;19971;-65
2023/04/24 10:09:54;;;;;;;;;;;9.50;99.90;;;;;;5073411;28;19928;-65
2023/04/24 10:12:19;;;;;;;;;;;9.70;99.90;;;;;;5072979;28;20406;-66
2023/04/24 10:14:46;;;;;;;;;;;9.80;99.90;;;;;;5073436;28;19925;-66
2023/04/24 10:17:12;;;;;;;;;;;9.90;99.90;;;;;;5074349;28;19924;-68
2023/04/24 10:19:38;;;;;;;;;;;10.00;99.90;;;;;;5056234;28;19940;-64
2023/04/24 10:22:04;;;;;;;;;;;10.10;99.90;;;;;;5056839;28;20009;-66
2023/04/24 10:24:31;;;;;;;;;;;10.30;99.90;;;;;;5073993;28;19924;-65
2023/04/24 10:26:57;;;;;;;;;;;10.30;99.90;;;;;;5072997;28;19932;-65
2023/04/24 10:29:24;;;;;;;;;;;10.40;99.90;;;;;;5053853;28;19985;-66
2023/04/24 10:31:49;;;;;;;;;;;10.40;99.90;;;;;;5073844;28;19925;-66
2023/04/24 10:34:17;;;;;;;;;;;10.50;99.90;;;;;;5073965;28;19932;-69
2023/04/24 10:36:45;;;;;;;;;;;10.50;99.90;;;;;;5074107;28;20067;-64
2023/04/24 10:39:11;;;;;;;;;;;10.70;99.90;;;;;;5055132;28;20055;-67
2023/04/24 10:41:37;;;;;;;;;;;10.80;99.90;;;;;;5073290;28;20344;-65
2023/04/24 10:44:13;;;;;;;;;;;10.80;99.90;;;;;;5072961;28;20012;-64
2023/04/24 10:46:42;;;;;;;;;;;10.90;99.90;;;;;;5073531;28;19977;-65
2023/04/24 10:49:11;;;;;;;;;;;10.90;99.90;;;;;;5072978;28;20010;-66
2023/04/24 10:51:50;;;;;;;;;;;10.90;99.90;;;;;;5105363;28;19990;-64
2023/04/24 10:54:25;;;;;;;;;;;10.90;99.90;;;;;;5055822;28;19967;-65
2023/04/24 10:56:51;;;;;;;;;;;10.80;99.90;;;;;;5073516;28;19934;-66
2023/04/24 10:59:27;;;;;;;;;;;10.90;99.90;;;;;;5072780;28;20293;-67
2023/04/24 11:01:54;;;;;;;;;;;10.90;99.90;;;;;;5072337;28;19925;-65
2023/04/24 11:04:28;;;;;;;;;;;11.00;99.90;;;;;;5073080;28;20028;-68
2023/04/24 11:06:54;;;;;;;;;;;11.00;99.90;;;;;;5073552;28;19924;-66
2023/04/24 11:09:20;;;;;;;;;;;11.00;99.90;;;;;;5071752;28;19946;-67
2023/04/24 11:11:46;;;;;;;;;;;11.10;99.90;;;;;;5071918;28;19931;-65
2023/04/24 11:14:15;;;;;;;;;;;11.10;99.90;;;;;;5073243;28;19986;-65
2023/04/24 11:16:45;;;;;;;;;;;11.10;99.90;;;;;;5071551;28;19924;-65
2023/04/24 11:19:11;;;;;;;;;;;11.10;99.90;;;;;;5071889;28;19924;-66
2023/04/24 11:21:55;;;;;;;;;;;11.10;99.90;;;;;;5054515;28;20011;-66
2023/04/24 11:24:32;;;;;;;;;;;11.00;99.90;;;;;;5068484;28;19928;-66
2023/04/24 11:26:59;;;;;;;;;;;11.00;99.90;;;;;;5071739;28;19974;-65
2023/04/24 11:29:43;;;;;;;;;;;10.90;99.90;;;;;;5072124;28;19931;-67
2023/04/24 11:32:28;;;;;;;;;;;10.80;99.90;;;;;;5070625;28;19924;-67
2023/04/24 11:34:55;;;;;;;;;;;10.60;99.90;;;;;;5070866;28;20047;-65
2023/04/24 11:37:22;;;;;;;;;;;10.60;99.90;;;;;;5070539;28;20033;-65
2023/04/24 11:39:50;;;;;;;;;;;10.60;99.90;;;;;;5071659;28;19925;-67
2023/04/24 11:42:16;;;;;;;;;;;10.50;99.90;;;;;;5072767;28;20280;-67
2023/04/24 11:44:42;;;;;;;;;;;10.60;99.90;;;;;;5054639;28;19977;-66
2023/04/24 11:47:08;;;;;;;;;;;10.50;99.90;;;;;;5071783;28;19928;-65
2023/04/24 11:49:36;;;;;;;;;;;10.50;99.90;;;;;;5054707;28;20277;-65
2023/04/24 11:52:02;;;;;;;;;;;10.50;99.90;;;;;;5072924;28;19927;-64
2023/04/24 11:54:27;;;;;;;;;;;10.50;99.90;;;;;;5070593;28;20274;-66
2023/04/24 11:56:53;;;;;;;;;;;10.60;99.90;;;;;;5071440;28;20022;-65
2023/04/24 11:59:18;;;;;;;;;;;10.50;99.90;;;;;;5067102;28;19927;-67
2023/04/24 12:01:45;;;;;;;;;;;10.60;99.90;;;;;;5051742;28;19925;-65
2023/04/24 12:04:11;;;;;;;;;;;10.60;99.90;;;;;;5070797;28;20368;-65
2023/04/24 12:06:36;;;;;;;;;;;10.50;99.90;;;;;;5071207;28;19925;-64
2023/04/24 12:09:02;;;;;;;;;;;10.50;99.90;;;;;;5070587;28;19924;-63
2023/04/24 12:11:28;;;;;;;;;;;10.50;99.90;;;;;;5071326;28;20003;-70
2023/04/24 12:13:53;;;;;;;;;;;10.40;99.90;;;;;;5071905;28;20285;-63
2023/04/24 12:16:19;;;;;;;;;;;10.30;99.90;;;;;;5070997;28;19960;-65
2023/04/24 12:18:45;;;;;;;;;;;10.30;99.90;;;;;;5069452;28;19925;-65
2023/04/24 12:21:15;;;;;;;;;;;10.30;99.90;;;;;;5068320;28;19930;-69
2023/04/24 12:23:42;;;;;;;;;;;10.30;99.90;;;;;;5070786;28;19924;-65
2023/04/24 12:26:08;;;;;;;;;;;10.30;99.90;;;;;;5070401;28;19924;-66
2023/04/24 12:28:37;;;;;;;;;;;10.30;99.90;;;;;;5071081;28;19928;-66
2023/04/24 12:31:03;;;;;;;;;;;10.40;99.90;;;;;;5070539;28;20400;-66
2023/04/24 12:33:32;;;;;;;;;;;10.50;99.90;;;;;;5070283;28;19950;-66
2023/04/24 12:35:58;;;;;;;;;;;10.60;99.90;;;;;;5071889;28;19968;-65
2023/04/24 12:38:24;;;;;;;;;;;10.70;99.90;;;;;;5070962;28;19967;-65
2023/04/24 12:41:01;;;;;;;;;;;10.80;99.90;;;;;;5070469;28;19925;-66
2023/04/24 12:43:27;;;;;;;;;;;10.90;99.90;;;;;;5070973;28;19924;-66
2023/04/24 12:45:52;;;;;;;;;;;11.00;99.90;;;;;;5053987;28;19924;-67
2023/04/24 12:48:20;;;;;;;;;;;11.10;99.90;;;;;;5071921;28;20015;-65
2023/04/24 12:50:45;;;;;;;;;;;11.10;99.90;;;;;;5070470;28;19924;-66
2023/04/24 12:53:11;;;;;;;;;;;11.10;99.90;;;;;;5071867;28;19925;-65
2023/04/24 12:55:37;;;;;;;;;;;11.10;99.90;;;;;;5070722;28;20366;-64
2023/04/24 12:58:02;;;;;;;;;;;11.00;99.90;;;;;;5054172;28;19929;-65
2023/04/24 13:00:28;;;;;;;;;;;11.00;99.90;;;;;;5070965;28;20062;-64
2023/04/24 13:02:54;;;;;;;;;;;10.80;99.90;;;;;;5071459;28;20113;-65
2023/04/24 13:05:20;;;;;;;;;;;10.70;99.90;;;;;;5071929;28;19924;-66
2023/04/24 13:07:45;;;;;;;;;;;10.50;99.90;;;;;;5070540;28;19932;-66
2023/04/24 13:10:13;;;;;;;;;;;10.50;99.90;;;;;;5053941;28;20045;-65
2023/04/24 13:12:38;;;;;;;;;;;10.50;99.90;;;;;;5071280;28;19970;-66
2023/04/24 13:15:05;;;;;;;;;;;10.50;99.90;;;;;;5072367;28;19924;-64
2023/04/24 13:17:30;;;;;;;;;;;10.40;99.90;;;;;;5075494;28;20282;-64
2023/04/24 13:19:56;;;;;;;;;;;10.40;99.90;;;;;;5073967;28;19935;-65
2023/04/24 13:22:21;;;;;;;;;;;10.40;99.90;;;;;;5073253;28;19929;-64
2023/04/24 13:24:50;;;;;;;;;;;10.30;99.90;;;;;;5073175;28;19928;-66
2023/04/24 13:27:16;;;;;;;;;;;10.20;99.90;;;;;;5075031;28;20456;-64
2023/04/24 13:29:41;;;;;;;;;;;10.10;99.90;;;;;;5074543;28;20031;-68
2023/04/24 13:32:07;;;;;;;;;;;10.00;99.90;;;;;;5069956;28;19924;-65
2023/04/24 13:34:34;;;;;;;;;;;10.00;99.90;;;;;;5073796;28;19928;-66
2023/04/24 13:37:00;;;;;;;;;;;10.00;99.90;;;;;;5073336;28;19971;-65
2023/04/24 13:39:26;;;;;;;;;;;10.10;99.90;;;;;;5072786;28;19980;-64
2023/04/24 13:41:52;;;;;;;;;;;10.20;99.90;;;;;;5070950;28;20036;-66
2023/04/24 13:44:18;;;;;;;;;;;10.20;99.90;;;;;;5074870;28;19924;-64
2023/04/24 13:46:45;;;;;;;;;;;10.30;99.90;;;;;;5074810;28;19925;-65
2023/04/24 13:49:11;;;;;;;;;;;10.30;99.90;;;;;;5075045;28;19931;-65
2023/04/24 13:51:37;;;;;;;;;;;10.40;99.90;;;;;;5073824;28;19924;-65
2023/04/24 13:54:02;;;;;;;;;;;10.50;99.90;;;;;;5074357;28;19997;-65
2023/04/24 13:56:28;;;;;;;;;;;10.50;99.90;;;;;;5073388;28;19948;-65
2023/04/24 13:58:54;;;;;;;;;;;10.50;99.90;;;;;;5072432;28;19925;-65
2023/04/24 14:01:23;;;;;;;;;;;10.50;99.90;;;;;;5074724;28;20019;-64
2023/04/24 14:03:49;;;;;;;;;;;10.50;99.90;;;;;;5073185;28;19970;-64
2023/04/24 14:06:15;;;;;;;;;;;10.40;99.90;;;;;;5056360;28;19975;-67
2023/04/24 14:08:41;;;;;;;;;;;10.20;99.90;;;;;;5056925;28;19924;-66
2023/04/24 14:11:06;;;;;;;;;;;10.00;99.90;;;;;;5073716;28;19935;-65
2023/04/24 14:13:32;;;;;;;;;;;9.90;99.90;;;;;;5074007;28;19925;-65